Time;durP1;ratioP1;P1;durP2;ratioP2;P2;SDS_P1;SDS_P2;PMS_P1;PMS_P2;Temp;Humidity;BMP_temperature;BMP_pressure;BME280_temperature;BME280_humidity;BME280_pressure;Samples;Min_cycle;Max_cycle;Signal;HPM_P1;HPM_P2
2020/12/03 00:00:52;;;;;;;;;;;3.30;99.90;;;;;;5099224;28;19941;-80
2020/12/03 00:03:20;;;;;;;;;;;3.20;99.90;;;;;;5097434;28;19916;-77
2020/12/03 00:05:49;;;;;;;;;;;3.00;99.90;;;;;;5094149;28;19923;-77
2020/12/03 00:08:15;;;;;;;;;;;2.90;99.90;;;;;;5095671;28;20382;-77
2020/12/03 00:10:40;;;;;;;;;;;2.90;99.90;;;;;;5094807;28;19963;-77
2020/12/03 00:13:08;;;;;;;;;;;2.80;99.90;;;;;;5095718;28;19916;-78
2020/12/03 00:15:33;;;;;;;;;;;3.00;99.90;;;;;;5095658;28;19916;-77
2020/12/03 00:17:59;;;;;;;;;;;2.90;99.90;;;;;;5094271;28;19926;-77
2020/12/03 00:20:26;;;;;;;;;;;2.90;99.90;;;;;;5093212;28;19920;-77
2020/12/03 00:22:51;;;;;;;;;;;2.90;99.90;;;;;;5095384;28;20334;-77
2020/12/03 00:25:17;;;;;;;;;;;2.90;99.90;;;;;;5095298;28;19969;-77
2020/12/03 00:27:47;;;;;;;;;;;2.90;99.90;;;;;;5095586;28;19916;-80
2020/12/03 00:30:12;;;;;;;;;;;2.90;99.90;;;;;;5094908;28;19916;-77
2020/12/03 00:32:38;;;;;;;;;;;2.90;99.90;;;;;;5095083;28;19923;-77
2020/12/03 00:35:03;;;;;;;;;;;2.90;99.90;;;;;;5095205;28;19968;-77
2020/12/03 00:37:29;;;;;;;;;;;2.90;99.90;;;;;;5093826;28;20374;-77
2020/12/03 00:39:55;;;;;;;;;;;2.80;99.90;;;;;;5093180;28;19947;-77
2020/12/03 00:42:21;;;;;;;;;;;2.90;99.90;;;;;;5094928;28;20377;-77
2020/12/03 00:44:46;;;;;;;;;;;2.90;99.90;;;;;;5093550;28;20018;-77
2020/12/03 00:47:11;;;;;;;;;;;3.00;99.90;;;;;;5094842;28;19942;-77
2020/12/03 00:49:37;;;;;;;;;;;3.10;99.90;;;;;;5095412;28;19923;-78
2020/12/03 00:52:02;;;;;;;;;;;3.20;99.90;;;;;;5098347;28;19916;-78
2020/12/03 00:54:29;;;;;;;;;;;3.20;99.90;;;;;;5096355;28;19983;-78
2020/12/03 00:56:55;;;;;;;;;;;3.30;99.90;;;;;;5097194;28;19963;-78
2020/12/03 00:59:20;;;;;;;;;;;3.50;99.90;;;;;;5096479;28;19916;-77
2020/12/03 01:01:46;;;;;;;;;;;3.50;99.90;;;;;;5093942;28;20327;-78
2020/12/03 01:04:11;;;;;;;;;;;3.50;99.90;;;;;;5095064;28;19916;-78
2020/12/03 01:06:36;;;;;;;;;;;3.50;99.90;;;;;;5096315;28;19920;-80
2020/12/03 01:09:02;;;;;;;;;;;3.60;99.90;;;;;;5096080;28;19916;-77
2020/12/03 01:11:29;;;;;;;;;;;3.60;99.90;;;;;;5094546;28;20433;-77
2020/12/03 01:13:54;;;;;;;;;;;3.50;99.90;;;;;;5093543;28;20354;-77
2020/12/03 01:16:21;;;;;;;;;;;3.50;99.90;;;;;;5093336;28;19959;-77
2020/12/03 01:18:46;;;;;;;;;;;3.40;99.90;;;;;;5093888;28;19965;-78
2020/12/03 01:21:12;;;;;;;;;;;3.40;99.90;;;;;;5108484;28;19916;-77
2020/12/03 01:23:38;;;;;;;;;;;3.30;99.90;;;;;;5114779;28;19919;-77
2020/12/03 01:26:03;;;;;;;;;;;3.20;99.90;;;;;;5113591;28;19993;-77
2020/12/03 01:28:30;;;;;;;;;;;2.80;99.90;;;;;;5114489;28;20250;-77
2020/12/03 01:30:55;;;;;;;;;;;2.80;99.90;;;;;;5113910;28;19930;-77
2020/12/03 01:33:21;;;;;;;;;;;2.90;99.90;;;;;;5113225;28;20006;-77
2020/12/03 01:35:46;;;;;;;;;;;2.80;99.90;;;;;;5113235;28;19922;-77
2020/12/03 01:38:12;;;;;;;;;;;2.80;99.90;;;;;;5114513;28;19915;-77
2020/12/03 01:40:37;;;;;;;;;;;2.80;99.90;;;;;;5112611;28;19953;-77
2020/12/03 01:43:03;;;;;;;;;;;3.00;99.90;;;;;;5116230;28;19916;-79
2020/12/03 01:45:50;;;;;;;;;;;3.20;99.90;;;;;;5116886;28;19958;-78
2020/12/03 01:48:19;;;;;;;;;;;3.20;99.90;;;;;;5117471;28;19919;-79
2020/12/03 01:50:44;;;;;;;;;;;3.30;99.90;;;;;;5115413;28;19915;-78
2020/12/03 01:53:11;;;;;;;;;;;3.40;99.90;;;;;;5117890;28;19922;-78
2020/12/03 01:55:36;;;;;;;;;;;3.50;99.90;;;;;;5117521;28;20360;-78
2020/12/03 01:58:03;;;;;;;;;;;3.60;99.90;;;;;;5116387;28;19922;-79
2020/12/03 02:00:29;;;;;;;;;;;3.60;99.90;;;;;;5117196;28;19923;-80
2020/12/03 02:02:55;;;;;;;;;;;3.60;99.90;;;;;;5116613;28;19915;-78
2020/12/03 02:05:23;;;;;;;;;;;3.60;99.90;;;;;;5117546;28;19954;-78
2020/12/03 02:07:48;;;;;;;;;;;3.60;99.90;;;;;;5117249;28;19981;-77
2020/12/03 02:10:15;;;;;;;;;;;3.50;99.90;;;;;;5118336;28;20369;-78
2020/12/03 02:12:40;;;;;;;;;;;3.50;99.90;;;;;;5118741;28;19919;-77
2020/12/03 02:15:06;;;;;;;;;;;3.50;99.90;;;;;;5118346;28;19980;-77
2020/12/03 02:17:32;;;;;;;;;;;3.40;99.90;;;;;;5116956;28;20300;-77
2020/12/03 02:19:59;;;;;;;;;;;3.30;99.90;;;;;;5116352;28;19915;-77
2020/12/03 02:22:25;;;;;;;;;;;3.00;99.90;;;;;;5118105;28;19956;-78
2020/12/03 02:24:51;;;;;;;;;;;2.90;99.90;;;;;;5118202;28;20378;-77
2020/12/03 02:27:17;;;;;;;;;;;2.80;99.90;;;;;;5116844;28;20262;-77
2020/12/03 02:29:43;;;;;;;;;;;2.80;99.90;;;;;;5115948;28;20311;-77
2020/12/03 02:32:08;;;;;;;;;;;2.80;99.90;;;;;;5117970;28;19923;-77
2020/12/03 02:34:34;;;;;;;;;;;2.80;99.90;;;;;;5117907;28;19920;-77
2020/12/03 02:37:01;;;;;;;;;;;2.80;99.90;;;;;;5117898;28;20392;-78
2020/12/03 02:39:27;;;;;;;;;;;2.70;99.90;;;;;;5117088;28;19919;-77
2020/12/03 02:41:53;;;;;;;;;;;2.80;99.90;;;;;;5117691;27;19923;-77
2020/12/03 02:44:19;;;;;;;;;;;2.80;99.90;;;;;;5117771;28;19919;-77
2020/12/03 02:46:44;;;;;;;;;;;4.10;99.90;;;;;;5117608;28;19916;-77
2020/12/03 02:49:10;;;;;;;;;;;2.70;99.90;;;;;;5115569;28;20330;-77
2020/12/03 02:51:35;;;;;;;;;;;2.70;99.90;;;;;;5117684;28;19954;-78
2020/12/03 02:54:02;;;;;;;;;;;2.70;99.90;;;;;;5117391;28;19968;-77
2020/12/03 02:56:27;;;;;;;;;;;2.70;99.90;;;;;;5117683;28;20323;-77
2020/12/03 02:58:53;;;;;;;;;;;2.70;99.90;;;;;;5116838;28;19961;-77
2020/12/03 03:01:18;;;;;;;;;;;2.80;99.90;;;;;;5117217;28;19922;-77
2020/12/03 03:03:44;;;;;;;;;;;2.70;99.90;;;;;;5117175;28;19969;-77
2020/12/03 03:06:10;;;;;;;;;;;2.70;99.90;;;;;;5117102;28;19992;-77
2020/12/03 03:08:35;;;;;;;;;;;2.70;99.90;;;;;;5116725;28;19923;-77
2020/12/03 03:11:01;;;;;;;;;;;2.60;99.90;;;;;;5116034;28;19919;-78
2020/12/03 03:13:27;;;;;;;;;;;2.70;99.90;;;;;;5116941;28;19920;-77
2020/12/03 03:15:52;;;;;;;;;;;2.60;99.90;;;;;;5116893;28;19938;-78
2020/12/03 03:18:18;;;;;;;;;;;2.60;99.90;;;;;;5116466;28;19959;-77
2020/12/03 03:20:43;;;;;;;;;;;2.60;99.90;;;;;;5113742;28;19919;-77
2020/12/03 03:23:09;;;;;;;;;;;2.60;99.90;;;;;;5115643;28;20014;-77
2020/12/03 03:25:34;;;;;;;;;;;2.70;99.90;;;;;;5116864;28;19919;-77
2020/12/03 03:28:00;;;;;;;;;;;2.60;99.90;;;;;;5116817;28;20349;-78
2020/12/03 03:30:26;;;;;;;;;;;2.60;99.90;;;;;;5116120;28;20014;-77
2020/12/03 03:32:51;;;;;;;;;;;2.60;99.90;;;;;;5116718;28;19974;-77
2020/12/03 03:35:18;;;;;;;;;;;2.70;99.90;;;;;;5115382;28;19972;-77
2020/12/03 03:37:44;;;;;;;;;;;2.80;99.90;;;;;;5116767;28;19947;-77
2020/12/03 03:40:10;;;;;;;;;;;2.80;99.90;;;;;;5116090;28;19962;-77
2020/12/03 03:42:35;;;;;;;;;;;2.80;99.90;;;;;;5115194;28;19930;-77
2020/12/03 03:45:02;;;;;;;;;;;2.70;99.90;;;;;;5115233;28;19916;-77
2020/12/03 03:47:28;;;;;;;;;;;2.70;99.90;;;;;;5116327;28;19927;-77
2020/12/03 03:49:53;;;;;;;;;;;2.70;99.90;;;;;;5114471;28;19915;-77
2020/12/03 03:52:19;;;;;;;;;;;2.70;99.90;;;;;;5115061;28;19951;-77
2020/12/03 03:54:44;;;;;;;;;;;2.70;99.90;;;;;;5115022;28;20050;-77
2020/12/03 03:57:10;;;;;;;;;;;2.80;99.90;;;;;;5115035;28;19915;-77
2020/12/03 03:59:35;;;;;;;;;;;2.70;99.90;;;;;;5115582;28;20346;-77
2020/12/03 04:02:02;;;;;;;;;;;2.60;99.90;;;;;;5116102;28;19960;-77
2020/12/03 04:04:27;;;;;;;;;;;2.60;99.90;;;;;;5114719;28;19919;-77
2020/12/03 04:06:53;;;;;;;;;;;2.70;99.90;;;;;;5116059;28;20357;-77
2020/12/03 04:09:18;;;;;;;;;;;2.70;99.90;;;;;;5115608;28;19919;-77
2020/12/03 04:11:44;;;;;;;;;;;2.70;99.90;;;;;;5114800;28;19916;-77
2020/12/03 04:14:09;;;;;;;;;;;2.70;99.90;;;;;;5115874;28;20392;-78
2020/12/03 04:16:35;;;;;;;;;;;2.70;99.90;;;;;;5115747;28;19926;-77
2020/12/03 04:19:01;;;;;;;;;;;2.70;99.90;;;;;;5115378;28;20033;-77
2020/12/03 04:21:27;;;;;;;;;;;2.70;99.90;;;;;;5115690;28;20400;-77
2020/12/03 04:23:52;;;;;;;;;;;2.60;99.90;;;;;;5115712;28;19915;-77
2020/12/03 04:26:18;;;;;;;;;;;2.70;99.90;;;;;;5115750;28;19969;-77
2020/12/03 04:28:43;;;;;;;;;;;2.60;99.90;;;;;;5115005;28;19926;-77
2020/12/03 04:31:09;;;;;;;;;;;2.60;99.90;;;;;;5115110;28;19920;-77
2020/12/03 04:33:35;;;;;;;;;;;2.60;99.90;;;;;;5114226;28;20361;-77
2020/12/03 04:36:01;;;;;;;;;;;2.70;99.90;;;;;;5115541;28;20418;-77
2020/12/03 04:38:27;;;;;;;;;;;2.60;99.90;;;;;;5115406;28;19942;-77
2020/12/03 04:40:52;;;;;;;;;;;2.70;99.90;;;;;;5114703;28;20443;-77
2020/12/03 04:43:21;;;;;;;;;;;2.70;99.90;;;;;;5113909;28;19915;-77
2020/12/03 04:45:48;;;;;;;;;;;2.70;99.90;;;;;;5114032;28;19923;-77
2020/12/03 04:48:20;;;;;;;;;;;2.80;99.90;;;;;;5115282;28;19916;-77
2020/12/03 04:50:51;;;;;;;;;;;2.70;99.90;;;;;;5114531;28;19919;-77
2020/12/03 04:53:48;;;;;;;;;;;2.80;99.90;;;;;;5115150;28;19916;-77
2020/12/03 04:56:21;;;;;;;;;;;2.70;99.90;;;;;;5052664;28;19956;-77
2020/12/03 04:58:49;;;;;;;;;;;2.70;99.90;;;;;;5098212;28;20288;-77
2020/12/03 05:01:27;;;;;;;;;;;2.70;99.90;;;;;;5113373;28;20365;-77
2020/12/03 05:04:00;;;;;;;;;;;2.70;99.90;;;;;;5115012;28;19916;-77
2020/12/03 05:06:33;;;;;;;;;;;2.70;99.90;;;;;;5113428;28;19931;-77
2020/12/03 05:09:00;;;;;;;;;;;2.70;99.90;;;;;;5113078;28;19919;-77
2020/12/03 05:11:29;;;;;;;;;;;2.60;99.90;;;;;;5113598;28;20413;-77
2020/12/03 05:13:57;;;;;;;;;;;2.60;99.90;;;;;;5113322;28;19964;-77
2020/12/03 05:16:26;;;;;;;;;;;2.60;99.90;;;;;;5114737;28;19915;-77
2020/12/03 05:18:53;;;;;;;;;;;2.60;99.90;;;;;;5114116;28;19962;-78
2020/12/03 05:21:22;;;;;;;;;;;2.70;99.90;;;;;;5113141;28;19960;-77
2020/12/03 05:23:47;;;;;;;;;;;2.80;99.90;;;;;;5112679;28;19915;-77
2020/12/03 05:26:15;;;;;;;;;;;2.80;99.90;;;;;;5114739;28;19942;-77
2020/12/03 05:28:51;;;;;;;;;;;2.90;99.90;;;;;;5112836;28;19970;-77
2020/12/03 05:31:18;;;;;;;;;;;3.00;99.90;;;;;;5114500;28;20280;-77
2020/12/03 05:33:44;;;;;;;;;;;3.00;99.90;;;;;;5114534;28;19920;-77
2020/12/03 05:36:17;;;;;;;;;;;3.00;99.90;;;;;;5114793;28;20370;-77
2020/12/03 05:38:43;;;;;;;;;;;3.10;99.90;;;;;;5114024;28;19969;-78
2020/12/03 05:41:10;;;;;;;;;;;3.20;99.90;;;;;;5114463;28;19915;-78
2020/12/03 05:43:35;;;;;;;;;;;3.20;99.90;;;;;;5113670;28;19919;-77
2020/12/03 05:46:03;;;;;;;;;;;3.20;99.90;;;;;;5114234;28;20258;-77
2020/12/03 05:48:29;;;;;;;;;;;3.20;99.90;;;;;;5112926;28;20416;-77
2020/12/03 05:50:55;;;;;;;;;;;3.20;99.90;;;;;;5112341;28;19958;-77
2020/12/03 05:53:22;;;;;;;;;;;3.20;99.90;;;;;;5114264;28;19926;-77
2020/12/03 05:55:48;;;;;;;;;;;3.30;99.90;;;;;;5113030;28;19919;-77
2020/12/03 05:58:18;;;;;;;;;;;3.30;99.90;;;;;;5113055;28;19923;-77
2020/12/03 06:00:44;;;;;;;;;;;3.20;99.90;;;;;;5113591;28;20010;-77
2020/12/03 06:03:22;;;;;;;;;;;3.30;99.90;;;;;;5112915;28;19958;-78
2020/12/03 06:05:57;;;;;;;;;;;3.30;99.90;;;;;;5114071;28;19919;-77
2020/12/03 06:08:31;;;;;;;;;;;3.30;99.90;;;;;;5115078;28;20395;-78
2020/12/03 06:11:10;;;;;;;;;;;3.30;99.90;;;;;;5112698;28;20010;-77
2020/12/03 06:13:50;;;;;;;;;;;3.30;99.90;;;;;;5114179;28;19964;-77
2020/12/03 06:16:25;;;;;;;;;;;3.30;99.90;;;;;;5112789;28;19926;-77
2020/12/03 06:18:57;;;;;;;;;;;3.30;99.90;;;;;;5112306;28;19920;-77
2020/12/03 06:21:49;;;;;;;;;;;3.20;99.90;;;;;;5113658;28;19984;-77
2020/12/03 06:24:23;;;;;;;;;;;3.00;99.90;;;;;;5077473;28;19965;-77
2020/12/03 06:27:01;;;;;;;;;;;3.00;99.90;;;;;;5114041;28;19915;-77
2020/12/03 06:29:41;;;;;;;;;;;3.00;99.90;;;;;;5112065;28;19920;-78
2020/12/03 06:32:25;;;;;;;;;;;2.90;99.90;;;;;;5111231;28;19919;-77
2020/12/03 06:34:56;;;;;;;;;;;2.90;99.90;;;;;;5114041;28;19915;-77
2020/12/03 06:37:24;;;;;;;;;;;2.90;99.90;;;;;;5113952;28;19981;-77
2020/12/03 06:39:54;;;;;;;;;;;2.90;99.90;;;;;;5113135;28;20349;-77
2020/12/03 06:42:28;;;;;;;;;;;2.90;99.90;;;;;;5113771;28;19916;-77
2020/12/03 06:44:58;;;;;;;;;;;2.80;99.90;;;;;;5112653;28;19916;-77
2020/12/03 06:47:38;;;;;;;;;;;2.90;99.90;;;;;;5113687;28;19926;-77
2020/12/03 06:50:19;;;;;;;;;;;2.90;99.90;;;;;;5111719;28;19965;-77
2020/12/03 06:53:02;;;;;;;;;;;2.90;99.90;;;;;;5113778;28;19919;-77
2020/12/03 06:55:42;;;;;;;;;;;2.80;99.90;;;;;;5116134;28;19915;-77
2020/12/03 06:58:30;;;;;;;;;;;2.90;99.90;;;;;;5117406;28;19921;-77
2020/12/03 07:01:01;;;;;;;;;;;2.80;99.90;;;;;;5116689;28;19920;-77
2020/12/03 07:03:52;;;;;;;;;;;2.80;99.90;;;;;;5115922;28;19919;-77
2020/12/03 07:06:28;;;;;;;;;;;2.90;99.90;;;;;;5117136;28;19915;-77
2020/12/03 07:09:12;;;;;;;;;;;2.90;99.90;;;;;;5116616;28;20350;-77
2020/12/03 07:11:52;;;;;;;;;;;2.90;99.90;;;;;;5117060;28;20324;-77
2020/12/03 07:14:47;;;;;;;;;;;2.90;99.90;;;;;;5117071;28;19915;-77
2020/12/03 07:17:36;;;;;;;;;;;2.90;99.90;;;;;;5117009;28;19965;-77
2020/12/03 07:20:07;;;;;;;;;;;2.90;99.90;;;;;;5116153;28;20388;-77
2020/12/03 07:22:37;;;;;;;;;;;2.90;99.90;;;;;;5115615;28;19916;-77
2020/12/03 07:25:03;;;;;;;;;;;2.80;99.90;;;;;;5117147;28;19920;-77
2020/12/03 07:27:48;;;;;;;;;;;2.60;99.90;;;;;;5116144;28;19920;-78
2020/12/03 07:30:24;;;;;;;;;;;2.70;99.90;;;;;;5115450;28;19969;-78
2020/12/03 07:32:51;;;;;;;;;;;2.80;99.90;;;;;;5117103;28;19915;-78
2020/12/03 07:35:28;;;;;;;;;;;2.80;99.90;;;;;;5117139;28;19915;-78
2020/12/03 07:38:01;;;;;;;;;;;2.70;99.90;;;;;;5116091;28;19922;-78
2020/12/03 07:40:27;;;;;;;;;;;2.80;99.90;;;;;;5116280;28;20269;-78
2020/12/03 07:42:58;;;;;;;;;;;2.70;99.90;;;;;;5117156;28;19922;-78
2020/12/03 07:45:32;;;;;;;;;;;2.70;99.90;;;;;;5116787;28;20014;-78
2020/12/03 07:48:06;;;;;;;;;;;2.80;99.90;;;;;;5115462;28;20379;-78
2020/12/03 07:50:42;;;;;;;;;;;2.80;99.90;;;;;;5114785;28;19946;-78
2020/12/03 07:53:18;;;;;;;;;;;2.80;99.90;;;;;;5116700;28;19920;-78
2020/12/03 07:55:44;;;;;;;;;;;2.80;99.90;;;;;;5116533;28;19920;-78
2020/12/03 07:58:24;;;;;;;;;;;2.80;99.90;;;;;;5115417;28;19915;-78
2020/12/03 08:00:51;;;;;;;;;;;2.90;99.90;;;;;;5115969;28;20022;-78
2020/12/03 08:03:37;;;;;;;;;;;2.90;99.90;;;;;;5115397;28;20005;-77
2020/12/03 08:06:19;;;;;;;;;;;2.90;99.90;;;;;;5115554;28;20322;-77
2020/12/03 08:08:47;;;;;;;;;;;2.80;99.90;;;;;;5115997;28;19915;-78
2020/12/03 08:11:32;;;;;;;;;;;3.00;99.90;;;;;;5116149;28;19926;-77
2020/12/03 08:13:57;;;;;;;;;;;3.00;99.90;;;;;;5116097;28;19911;-78
2020/12/03 08:16:31;;;;;;;;;;;3.10;99.90;;;;;;5116001;28;19926;-78
2020/12/03 08:19:00;;;;;;;;;;;3.00;99.90;;;;;;5114191;28;19985;-78
2020/12/03 08:21:36;;;;;;;;;;;3.20;99.90;;;;;;5114833;28;19920;-77
2020/12/03 08:24:02;;;;;;;;;;;3.20;99.90;;;;;;5113118;28;19962;-78
2020/12/03 08:26:27;;;;;;;;;;;3.20;99.90;;;;;;5114535;28;20280;-78
2020/12/03 08:28:53;;;;;;;;;;;3.10;99.90;;;;;;5115163;28;19922;-78
2020/12/03 08:31:18;;;;;;;;;;;3.10;99.90;;;;;;5115752;28;19919;-78
2020/12/03 08:33:50;;;;;;;;;;;3.10;99.90;;;;;;5114466;28;20281;-78
2020/12/03 08:36:16;;;;;;;;;;;3.10;99.90;;;;;;5114835;28;20320;-78
2020/12/03 08:38:43;;;;;;;;;;;3.10;99.90;;;;;;5113813;28;19916;-78
2020/12/03 08:41:12;;;;;;;;;;;3.20;99.90;;;;;;5115912;28;19921;-78
2020/12/03 08:43:42;;;;;;;;;;;3.10;99.90;;;;;;5115573;28;19959;-78
2020/12/03 08:46:15;;;;;;;;;;;3.00;99.90;;;;;;5115605;28;20373;-78
2020/12/03 08:48:41;;;;;;;;;;;3.00;99.90;;;;;;5113563;28;19990;-78
2020/12/03 08:51:09;;;;;;;;;;;3.10;99.90;;;;;;5115381;28;20369;-78
2020/12/03 08:53:36;;;;;;;;;;;3.10;99.90;;;;;;5115292;28;20011;-78
2020/12/03 08:56:11;;;;;;;;;;;3.20;99.90;;;;;;5114114;28;19969;-78
2020/12/03 08:58:37;;;;;;;;;;;3.10;99.90;;;;;;5114719;28;19927;-79
2020/12/03 09:01:03;;;;;;;;;;;3.10;99.90;;;;;;5115202;28;20013;-78
2020/12/03 09:03:31;;;;;;;;;;;3.10;99.90;;;;;;5114009;28;20333;-78
2020/12/03 09:05:57;;;;;;;;;;;3.20;99.90;;;;;;5114957;28;19916;-78
2020/12/03 09:08:23;;;;;;;;;;;3.20;99.90;;;;;;5113721;28;20373;-78
2020/12/03 09:10:49;;;;;;;;;;;3.20;99.90;;;;;;5112987;28;19926;-78
2020/12/03 09:13:16;;;;;;;;;;;3.20;99.90;;;;;;5114907;28;19915;-78
2020/12/03 09:15:42;;;;;;;;;;;3.20;99.90;;;;;;5104077;28;19965;-78
2020/12/03 09:18:08;;;;;;;;;;;3.10;99.90;;;;;;5115070;28;19915;-78
2020/12/03 09:20:40;;;;;;;;;;;3.10;99.90;;;;;;5114382;28;19915;-78
2020/12/03 09:23:05;;;;;;;;;;;3.00;99.90;;;;;;5112515;28;20002;-78
2020/12/03 09:25:32;;;;;;;;;;;2.90;99.90;;;;;;5112024;28;20403;-78
2020/12/03 09:28:01;;;;;;;;;;;2.90;99.90;;;;;;5113264;28;19972;-78
2020/12/03 09:30:27;;;;;;;;;;;3.00;99.90;;;;;;5111612;28;19958;-78
2020/12/03 09:32:54;;;;;;;;;;;3.00;99.90;;;;;;5111925;28;20381;-78
2020/12/03 09:35:19;;;;;;;;;;;3.10;99.90;;;;;;5113114;28;19927;-78
2020/12/03 09:37:45;;;;;;;;;;;3.20;99.90;;;;;;5112993;28;19915;-78
2020/12/03 09:40:11;;;;;;;;;;;3.20;99.90;;;;;;5112443;28;19965;-78
2020/12/03 09:42:43;;;;;;;;;;;3.30;99.90;;;;;;5111594;28;19920;-78
2020/12/03 09:45:11;;;;;;;;;;;3.40;99.90;;;;;;5111631;28;19920;-77
2020/12/03 09:47:38;;;;;;;;;;;3.40;99.90;;;;;;5112663;28;19969;-78
2020/12/03 09:50:03;;;;;;;;;;;3.40;99.90;;;;;;5112690;28;19920;-78
2020/12/03 09:52:33;;;;;;;;;;;3.50;99.90;;;;;;5112915;28;20431;-78
2020/12/03 09:55:06;;;;;;;;;;;3.50;99.90;;;;;;5111603;28;20364;-78
2020/12/03 09:57:32;;;;;;;;;;;3.40;99.90;;;;;;5111685;28;20518;-78
2020/12/03 10:00:00;;;;;;;;;;;3.50;99.90;;;;;;5109961;28;19919;-78
2020/12/03 10:02:54;;;;;;;;;;;3.50;99.90;;;;;;5110686;28;20014;-78
2020/12/03 10:05:29;;;;;;;;;;;3.40;99.90;;;;;;5110498;28;19919;-78
2020/12/03 10:08:07;;;;;;;;;;;3.50;99.90;;;;;;5112756;28;19946;-78
2020/12/03 10:10:41;;;;;;;;;;;3.40;99.90;;;;;;5112227;28;19924;-78
2020/12/03 10:13:17;;;;;;;;;;;3.40;99.90;;;;;;5111331;28;19926;-78
2020/12/03 10:15:56;;;;;;;;;;;3.50;99.90;;;;;;5112886;28;19915;-77
2020/12/03 10:18:23;;;;;;;;;;;3.50;99.90;;;;;;5112909;28;19923;-78
2020/12/03 10:20:50;;;;;;;;;;;3.40;99.90;;;;;;5110787;28;19915;-78
2020/12/03 10:23:22;;;;;;;;;;;3.40;99.90;;;;;;5111330;28;19920;-78
2020/12/03 10:25:51;;;;;;;;;;;3.50;99.90;;;;;;5112438;28;19915;-78
2020/12/03 10:28:19;;;;;;;;;;;3.40;99.90;;;;;;5112931;28;19985;-78
2020/12/03 10:30:45;;;;;;;;;;;3.50;99.90;;;;;;5115887;27;20404;-78
2020/12/03 10:33:13;;;;;;;;;;;3.60;99.90;;;;;;5116492;28;19915;-78
2020/12/03 10:35:41;;;;;;;;;;;3.70;99.90;;;;;;5114827;28;19966;-78
2020/12/03 10:38:10;;;;;;;;;;;3.80;99.90;;;;;;5115151;28;19919;-78
2020/12/03 10:40:36;;;;;;;;;;;3.80;99.90;;;;;;5115747;28;19919;-78
2020/12/03 10:43:04;;;;;;;;;;;4.00;99.90;;;;;;5115218;28;19923;-78
2020/12/03 10:45:31;;;;;;;;;;;4.20;99.90;;;;;;5116348;28;19919;-77
2020/12/03 10:47:59;;;;;;;;;;;4.20;99.90;;;;;;5114801;28;19919;-77
2020/12/03 10:50:51;;;;;;;;;;;3.90;99.90;;;;;;5115514;28;19955;-78
2020/12/03 10:53:20;;;;;;;;;;;4.20;99.90;;;;;;5114896;28;19919;-78
2020/12/03 10:55:47;;;;;;;;;;;4.80;99.90;;;;;;5116142;28;20297;-77
2020/12/03 10:58:13;;;;;;;;;;;4.70;99.90;;;;;;5115938;28;19915;-77
2020/12/03 11:00:41;;;;;;;;;;;5.10;99.90;;;;;;5115069;28;20491;-77
2020/12/03 11:03:08;;;;;;;;;;;5.10;99.90;;;;;;5114519;28;19920;-77
2020/12/03 11:05:34;;;;;;;;;;;4.90;99.90;;;;;;5115970;28;19920;-78
2020/12/03 11:08:01;;;;;;;;;;;5.30;99.90;;;;;;5114600;28;20280;-78
2020/12/03 11:10:28;;;;;;;;;;;5.60;99.90;;;;;;5115376;28;20010;-78
2020/12/03 11:12:57;;;;;;;;;;;5.40;99.90;;;;;;5114257;28;20345;-77
2020/12/03 11:15:23;;;;;;;;;;;5.50;99.90;;;;;;5115588;28;19915;-77
2020/12/03 11:18:01;;;;;;;;;;;5.30;99.90;;;;;;5114395;28;19923;-77
2020/12/03 11:20:29;;;;;;;;;;;5.30;99.90;;;;;;5115043;28;19926;-78
2020/12/03 11:23:00;;;;;;;;;;;5.20;99.90;;;;;;5115479;28;20428;-78
2020/12/03 11:25:27;;;;;;;;;;;5.30;99.90;;;;;;5114003;28;19915;-77
2020/12/03 11:27:54;;;;;;;;;;;5.60;99.90;;;;;;5113995;28;19923;-78
2020/12/03 11:30:23;;;;;;;;;;;5.20;99.90;;;;;;5114750;28;19919;-80
2020/12/03 11:32:49;;;;;;;;;;;4.60;99.90;;;;;;5113989;28;20014;-77
2020/12/03 11:35:21;;;;;;;;;;;4.40;99.90;;;;;;5115406;28;20078;-78
2020/12/03 11:37:49;;;;;;;;;;;4.30;99.90;;;;;;5114991;28;19998;-79
2020/12/03 11:40:17;;;;;;;;;;;4.30;99.90;;;;;;5113606;28;19919;-78
2020/12/03 11:43:04;;;;;;;;;;;4.30;99.90;;;;;;5115073;28;19916;-78
2020/12/03 11:46:05;;;;;;;;;;;4.30;99.90;;;;;;5115239;28;19920;-77
2020/12/03 11:48:35;;;;;;;;;;;4.60;99.90;;;;;;5114782;27;20412;-78
2020/12/03 11:51:01;;;;;;;;;;;5.50;99.90;;;;;;5115259;28;19915;-78
2020/12/03 11:53:26;;;;;;;;;;;5.90;99.90;;;;;;5113852;28;20537;-78
2020/12/03 11:55:52;;;;;;;;;;;6.40;99.90;;;;;;5113754;28;19915;-78
2020/12/03 11:58:24;;;;;;;;;;;5.80;99.90;;;;;;5114962;28;19916;-77
2020/12/03 12:01:06;;;;;;;;;;;5.90;99.90;;;;;;5114046;28;19920;-78
2020/12/03 12:03:31;;;;;;;;;;;5.40;99.90;;;;;;5114959;28;20071;-77
2020/12/03 12:06:04;;;;;;;;;;;5.20;99.90;;;;;;5113348;28;20447;-77
2020/12/03 12:11:31;;;;;;;;;;;5.50;99.90;;;;;;5090720;28;19916;-77
2020/12/03 12:13:57;;;;;;;;;;;5.40;99.90;;;;;;5114258;28;19923;-78
2020/12/03 12:16:23;;;;;;;;;;;5.10;99.90;;;;;;5113212;28;20391;-78
2020/12/03 12:18:50;;;;;;;;;;;5.00;99.90;;;;;;5114079;28;19916;-78
2020/12/03 12:21:15;;;;;;;;;;;5.30;99.90;;;;;;5114107;28;20007;-78
2020/12/03 12:23:41;;;;;;;;;;;4.80;99.90;;;;;;5114104;28;19959;-78
2020/12/03 12:26:06;;;;;;;;;;;4.60;99.90;;;;;;5114156;28;19919;-77
2020/12/03 12:28:32;;;;;;;;;;;4.30;99.90;;;;;;5114307;28;19963;-77
2020/12/03 12:30:58;;;;;;;;;;;4.40;99.90;;;;;;5113931;28;19923;-78
2020/12/03 12:33:24;;;;;;;;;;;4.20;99.90;;;;;;5112927;28;19923;-77
2020/12/03 12:35:49;;;;;;;;;;;4.20;99.90;;;;;;5113682;28;19920;-77
2020/12/03 12:38:15;;;;;;;;;;;3.90;99.90;;;;;;5100096;28;19969;-77
2020/12/03 12:40:40;;;;;;;;;;;3.80;99.90;;;;;;5092803;28;19924;-77
2020/12/03 12:43:06;;;;;;;;;;;3.80;99.90;;;;;;5091905;28;19919;-78
2020/12/03 12:45:31;;;;;;;;;;;3.80;99.90;;;;;;5090564;28;19916;-79
2020/12/03 12:47:58;;;;;;;;;;;3.80;99.90;;;;;;5090530;28;19924;-78
2020/12/03 12:50:23;;;;;;;;;;;3.70;99.90;;;;;;5091189;28;19981;-77
2020/12/03 12:52:49;;;;;;;;;;;3.80;99.90;;;;;;5091262;28;19920;-78
2020/12/03 12:55:14;;;;;;;;;;;3.70;99.90;;;;;;5091542;28;19916;-78
2020/12/03 12:57:40;;;;;;;;;;;3.70;99.90;;;;;;5091484;28;19973;-78
2020/12/03 13:00:06;;;;;;;;;;;3.70;99.90;;;;;;5089347;28;19973;-77
2020/12/03 13:02:31;;;;;;;;;;;3.70;99.90;;;;;;5090074;28;19916;-78
2020/12/03 13:04:57;;;;;;;;;;;3.70;99.90;;;;;;5090068;28;19927;-78
2020/12/03 13:07:23;;;;;;;;;;;3.70;99.90;;;;;;5090091;28;19972;-78
2020/12/03 13:09:48;;;;;;;;;;;3.80;99.90;;;;;;5090821;28;19924;-78
2020/12/03 13:12:14;;;;;;;;;;;3.80;99.90;;;;;;5089455;28;20401;-78
2020/12/03 13:14:39;;;;;;;;;;;4.10;99.90;;;;;;5090489;28;19919;-78
2020/12/03 13:17:05;;;;;;;;;;;4.10;99.90;;;;;;5091421;28;19923;-78
2020/12/03 13:19:30;;;;;;;;;;;4.10;99.90;;;;;;5092337;28;19985;-78
2020/12/03 13:21:57;;;;;;;;;;;4.10;99.90;;;;;;5092749;28;19920;-78
2020/12/03 13:24:23;;;;;;;;;;;4.00;99.90;;;;;;5091379;28;19920;-78
2020/12/03 13:26:49;;;;;;;;;;;3.90;99.90;;;;;;5092533;28;19946;-78
2020/12/03 13:29:15;;;;;;;;;;;4.10;99.90;;;;;;5110652;27;19916;-78
2020/12/03 13:31:43;;;;;;;;;;;4.00;99.90;;;;;;5109428;28;19961;-78
2020/12/03 13:34:09;;;;;;;;;;;4.10;99.90;;;;;;5109417;28;20301;-78
2020/12/03 13:36:34;;;;;;;;;;;4.10;99.90;;;;;;5109414;28;19920;-78
2020/12/03 13:39:02;;;;;;;;;;;4.10;99.90;;;;;;5108993;28;20034;-78
2020/12/03 13:41:27;;;;;;;;;;;4.10;99.90;;;;;;5110045;28;19923;-78
2020/12/03 13:43:53;;;;;;;;;;;4.10;99.90;;;;;;5111433;28;19920;-77
2020/12/03 13:46:18;;;;;;;;;;;4.00;99.90;;;;;;5111150;28;20022;-78
2020/12/03 13:48:44;;;;;;;;;;;3.90;99.90;;;;;;5110282;28;20045;-78
2020/12/03 13:51:10;;;;;;;;;;;4.00;99.90;;;;;;5109687;28;19971;-78
2020/12/03 13:53:35;;;;;;;;;;;4.00;99.90;;;;;;5109606;28;19915;-78
2020/12/03 13:56:02;;;;;;;;;;;4.00;99.90;;;;;;5109679;28;19968;-78
2020/12/03 13:58:27;;;;;;;;;;;3.90;99.90;;;;;;5111045;28;20013;-78
2020/12/03 14:00:53;;;;;;;;;;;4.00;99.90;;;;;;5110270;28;20022;-78
2020/12/03 14:03:19;;;;;;;;;;;3.90;99.90;;;;;;5110172;28;19918;-78
2020/12/03 14:05:44;;;;;;;;;;;3.90;99.90;;;;;;5115115;27;19969;-77
2020/12/03 14:08:10;;;;;;;;;;;3.80;99.90;;;;;;5115004;28;20395;-78
2020/12/03 14:10:35;;;;;;;;;;;3.80;99.90;;;;;;5114515;28;19981;-78
2020/12/03 14:13:02;;;;;;;;;;;3.90;99.90;;;;;;5114230;28;20002;-78
2020/12/03 14:15:27;;;;;;;;;;;3.80;99.90;;;;;;5115509;28;20022;-78
2020/12/03 14:17:53;;;;;;;;;;;3.60;99.90;;;;;;5118135;28;19958;-78
2020/12/03 14:20:19;;;;;;;;;;;3.80;99.90;;;;;;5117719;28;20413;-77
2020/12/03 14:22:45;;;;;;;;;;;3.60;99.90;;;;;;5118467;28;19916;-77
2020/12/03 14:25:10;;;;;;;;;;;3.50;99.90;;;;;;5118212;28;19916;-78
2020/12/03 14:27:36;;;;;;;;;;;3.60;99.90;;;;;;5116688;28;19931;-77
2020/12/03 14:30:04;;;;;;;;;;;3.50;99.90;;;;;;5117933;27;20361;-78
2020/12/03 14:32:30;;;;;;;;;;;3.50;99.90;;;;;;5116882;28;19920;-78
2020/12/03 14:34:55;;;;;;;;;;;3.50;99.90;;;;;;5118101;28;19998;-77
2020/12/03 14:37:20;;;;;;;;;;;3.50;99.90;;;;;;5118021;28;19919;-78
2020/12/03 14:39:46;;;;;;;;;;;3.60;99.90;;;;;;5117403;28;19927;-77
2020/12/03 14:42:11;;;;;;;;;;;3.50;99.90;;;;;;5116561;28;19919;-78